createdAt,value
2018-09-19T00:00:40.374Z,17.29
2018-09-19T00:01:58.058Z,17.24
2018-09-19T00:03:16.948Z,17.29
2018-09-19T00:04:36.918Z,17.23
2018-09-19T00:05:43.839Z,17.34
2018-09-19T00:06:59.430Z,17.58
2018-09-19T00:08:21.653Z,17.60
2018-09-19T00:09:41.135Z,17.53
2018-09-19T00:11:02.426Z,17.12
2018-09-19T00:12:14.195Z,17.15
2018-09-19T00:13:30.648Z,17.23
2018-09-19T00:14:52.237Z,17.40
2018-09-19T00:16:14.294Z,17.31
2018-09-19T00:17:34.361Z,17.03
2018-09-19T00:18:54.801Z,17.15
2018-09-19T00:20:14.404Z,17.23
2018-09-19T00:21:35.977Z,17.26
2018-09-19T00:22:57.137Z,17.14
2018-09-19T00:24:20.261Z,17.09
2018-09-19T00:25:42.229Z,17.03
2018-09-19T00:27:00.473Z,16.80
2018-09-19T00:28:24.105Z,16.66
2018-09-19T00:29:43.284Z,16.62
2018-09-19T00:31:06.249Z,16.29
2018-09-19T00:32:26.347Z,16.78
2018-09-19T00:33:44.472Z,17.09
2018-09-19T00:35:07.181Z,16.86
2018-09-19T00:36:28.309Z,16.85
2018-09-19T00:37:48.237Z,17.11
2018-09-19T00:39:06.462Z,17.10
2018-09-19T00:40:25.840Z,17.14
2018-09-19T00:41:45.322Z,17.28
2018-09-19T00:43:03.144Z,17.12
2018-09-19T00:44:23.457Z,16.57
2018-09-19T00:45:46.663Z,16.52
2018-09-19T00:47:06.257Z,16.67
2018-09-19T00:48:26.051Z,16.80
2018-09-19T00:49:46.211Z,16.75
2018-09-19T00:51:05.229Z,16.58
2018-09-19T00:52:25.162Z,16.67
2018-09-19T00:53:48.719Z,16.67
2018-09-19T00:55:07.475Z,16.76
2018-09-19T00:56:22.891Z,16.80
2018-09-19T00:57:43.419Z,16.92
2018-09-19T00:59:00.672Z,16.89
2018-09-19T01:00:21.647Z,16.69
2018-09-19T01:01:31.117Z,16.62
2018-09-19T01:02:47.877Z,16.58
2018-09-19T01:04:07.807Z,16.53
2018-09-19T01:05:27.197Z,16.58
2018-09-19T01:06:48.770Z,16.55
2018-09-19T01:08:08.404Z,16.70
2018-09-19T01:09:23.173Z,16.68
2018-09-19T01:10:40.743Z,16.63
2018-09-19T01:11:58.851Z,16.59
2018-09-19T01:13:19.596Z,16.61
2018-09-19T01:14:37.253Z,16.55
2018-09-19T01:15:56.871Z,16.48
2018-09-19T01:17:17.512Z,16.53
2018-09-19T01:18:34.808Z,16.36
2018-09-19T01:19:49.961Z,16.48
2018-09-19T01:21:05.313Z,16.51
2018-09-19T01:22:20.486Z,16.37
2018-09-19T01:23:35.932Z,16.20
2018-09-19T01:24:53.914Z,16.31
2018-09-19T01:26:09.238Z,16.54
2018-09-19T01:27:24.569Z,16.73
2018-09-19T01:28:40.096Z,16.76
2018-09-19T01:29:56.763Z,16.76
2018-09-19T01:31:13.924Z,16.75
2018-09-19T01:32:27.925Z,16.81
2018-09-19T01:33:43.413Z,16.53
2018-09-19T01:34:58.144Z,16.40
2018-09-19T01:36:13.133Z,16.41
2018-09-19T01:37:29.583Z,16.45
2018-09-19T01:38:46.726Z,16.44
2018-09-19T01:40:03.864Z,16.52
2018-09-19T01:41:21.660Z,16.79
2018-09-19T01:42:42.007Z,16.89
2018-09-19T01:44:01.978Z,16.71
2018-09-19T01:45:22.786Z,16.15
2018-09-19T01:46:45.678Z,16.13
2018-09-19T01:48:07.729Z,16.42
2018-09-19T01:49:24.935Z,16.49
2018-09-19T01:50:44.789Z,16.41
2018-09-19T01:52:02.807Z,16.31
2018-09-19T01:53:21.845Z,16.20
2018-09-19T01:54:43.514Z,16.17
2018-09-19T01:56:03.436Z,16.20
2018-09-19T01:57:23.299Z,16.50
2018-09-19T01:58:43.269Z,16.63
2018-09-19T02:00:02.783Z,16.62
2018-09-19T02:01:21.778Z,16.82
2018-09-19T02:02:41.315Z,16.83
2018-09-19T02:04:03.076Z,16.68
2018-09-19T02:05:22.474Z,16.69
2018-09-19T02:06:42.978Z,16.62
2018-09-19T02:08:04.143Z,16.64
2018-09-19T02:09:21.976Z,16.66
2018-09-19T02:10:41.641Z,16.39
2018-09-19T02:12:02.020Z,16.29
2018-09-19T02:13:22.794Z,16.34
2018-09-19T02:14:41.835Z,16.36
2018-09-19T02:16:01.319Z,16.39
2018-09-19T02:17:24.930Z,16.44
2018-09-19T02:18:50.115Z,16.54
2018-09-19T02:20:08.986Z,16.62
2018-09-19T02:21:26.392Z,16.69
2018-09-19T02:22:43.770Z,16.72
2018-09-19T02:24:03.020Z,16.54
2018-09-19T02:25:23.083Z,16.59
2018-09-19T02:26:42.644Z,16.52
2018-09-19T02:28:01.841Z,16.52
2018-09-19T02:29:21.736Z,16.50
2018-09-19T02:30:40.210Z,16.50
2018-09-19T02:32:01.892Z,16.44
2018-09-19T02:33:21.201Z,16.58
2018-09-19T02:34:41.010Z,16.81
2018-09-19T02:35:59.719Z,16.63
2018-09-19T02:37:19.570Z,16.75
2018-09-19T02:38:38.101Z,16.64
2018-09-19T02:39:56.698Z,16.58
2018-09-19T02:41:14.206Z,16.59
2018-09-19T02:42:35.006Z,16.69
2018-09-19T02:43:55.139Z,16.87
2018-09-19T02:45:20.287Z,16.78
2018-09-19T02:46:42.043Z,16.57
2018-09-19T02:48:03.423Z,16.46
2018-09-19T02:49:23.235Z,16.54
2018-09-19T02:50:43.168Z,16.68
2018-09-19T02:52:02.373Z,16.72
2018-09-19T02:53:21.342Z,16.57
2018-09-19T02:54:40.786Z,16.50
2018-09-19T02:56:02.078Z,16.55
2018-09-19T02:57:20.734Z,16.61
2018-09-19T02:58:38.774Z,16.62
2018-09-19T02:59:59.697Z,16.71
2018-09-19T03:01:23.669Z,16.76
2018-09-19T03:02:45.795Z,16.73
2018-09-19T03:04:06.201Z,16.77
2018-09-19T03:05:27.033Z,16.77
2018-09-19T03:06:45.885Z,16.92
2018-09-19T03:08:05.655Z,16.99
2018-09-19T03:09:25.362Z,17.05
2018-09-19T03:10:44.687Z,17.13
2018-09-19T03:12:03.566Z,17.26
2018-09-19T03:13:21.537Z,17.31
2018-09-19T03:14:40.926Z,17.25
2018-09-19T03:16:00.227Z,17.22
2018-09-19T03:17:25.242Z,17.27
2018-09-19T03:18:45.985Z,17.29
2018-09-19T03:20:09.678Z,17.26
2018-09-19T03:21:31.448Z,17.19
2018-09-19T03:22:55.122Z,17.26
2018-09-19T03:24:11.460Z,17.37
2018-09-19T03:25:32.758Z,17.41
2018-09-19T03:26:53.109Z,17.40
2018-09-19T03:28:10.597Z,17.44
2018-09-19T03:29:29.176Z,17.40
2018-09-19T03:30:49.678Z,17.62
2018-09-19T03:32:09.004Z,17.74
2018-09-19T03:33:28.326Z,17.38
2018-09-19T03:34:48.806Z,17.24
2018-09-19T03:36:06.383Z,17.44
2018-09-19T03:37:22.367Z,17.54
2018-09-19T03:38:40.240Z,17.53
2018-09-19T03:40:00.709Z,17.45
2018-09-19T03:41:21.072Z,17.37
2018-09-19T03:42:40.605Z,17.43
2018-09-19T03:44:01.428Z,17.54
2018-09-19T03:45:23.447Z,17.63
2018-09-19T03:46:42.148Z,17.59
2018-09-19T03:48:03.393Z,17.45
2018-09-19T03:49:18.117Z,17.53
2018-09-19T03:50:38.062Z,17.49
2018-09-19T03:51:55.209Z,17.61
2018-09-19T03:53:13.534Z,17.55
2018-09-19T03:54:33.746Z,17.64
2018-09-19T03:55:56.428Z,17.71
2018-09-19T03:57:16.402Z,17.89
2018-09-19T03:58:38.400Z,17.93
2018-09-19T04:00:02.050Z,17.94
2018-09-19T04:01:22.776Z,17.95
2018-09-19T04:02:43.233Z,17.98
2018-09-19T04:04:02.529Z,17.93
2018-09-19T04:05:23.785Z,17.84
2018-09-19T04:06:47.090Z,17.83
2018-09-19T04:08:07.521Z,17.51
2018-09-19T04:09:27.951Z,17.09
2018-09-19T04:10:54.259Z,17.21
2018-09-19T04:12:13.617Z,17.43
2018-09-19T04:13:34.756Z,17.45
2018-09-19T04:14:43.099Z,17.42
2018-09-19T04:15:49.601Z,17.33
2018-09-19T04:16:56.459Z,16.84
2018-09-19T04:18:02.903Z,16.59
2018-09-19T04:19:09.239Z,16.72
2018-09-19T04:20:15.640Z,16.80
2018-09-19T04:21:22.067Z,16.79
2018-09-19T04:22:28.384Z,16.71
2018-09-19T04:23:42.399Z,16.64
2018-09-19T04:24:50.076Z,16.66
2018-09-19T04:25:56.125Z,16.59
2018-09-19T04:27:02.710Z,16.54
2018-09-19T04:28:09.049Z,16.49
2018-09-19T04:29:15.402Z,16.36
2018-09-19T04:30:21.746Z,16.31
2018-09-19T04:31:28.064Z,16.27
2018-09-19T04:32:34.801Z,16.27
2018-09-19T04:33:41.164Z,16.32
2018-09-19T04:34:47.484Z,16.37
2018-09-19T04:35:53.894Z,16.34
2018-09-19T04:37:00.351Z,16.33
2018-09-19T04:38:06.661Z,16.22
2018-09-19T04:39:12.992Z,16.15
2018-09-19T04:40:19.278Z,16.16
2018-09-19T04:41:25.649Z,16.17
2018-09-19T04:42:32.505Z,16.20
2018-09-19T04:43:39.035Z,16.41
2018-09-19T04:44:45.375Z,16.53
2018-09-19T04:45:51.821Z,16.42
2018-09-19T04:46:58.166Z,16.33
2018-09-19T04:48:04.472Z,16.28
2018-09-19T04:49:10.850Z,16.29
2018-09-19T04:50:17.307Z,16.29
2018-09-19T04:51:23.667Z,16.30
2018-09-19T04:52:29.887Z,16.32
2018-09-19T04:53:36.203Z,16.36
2018-09-19T04:54:42.487Z,16.30
2018-09-19T04:55:49.023Z,16.31
2018-09-19T04:56:55.361Z,16.29
2018-09-19T04:58:01.646Z,16.26
2018-09-19T04:59:08.013Z,16.20
2018-09-19T05:00:15.732Z,16.15
2018-09-19T05:01:22.061Z,16.15
2018-09-19T05:02:28.378Z,16.18
2018-09-19T05:03:34.787Z,16.23
2018-09-19T05:04:41.210Z,16.26
2018-09-19T05:05:47.585Z,16.28
2018-09-19T05:06:54.064Z,16.24
2018-09-19T05:08:00.403Z,16.20
2018-09-19T05:09:06.389Z,16.34
2018-09-19T05:10:13.715Z,16.52
2018-09-19T05:11:20.161Z,16.64
2018-09-19T05:12:26.714Z,16.72
2018-09-19T05:13:33.095Z,16.67
2018-09-19T05:14:39.557Z,16.58
2018-09-19T05:15:46.027Z,16.49
2018-09-19T05:16:52.489Z,16.43
2018-09-19T05:17:58.934Z,16.43
2018-09-19T05:19:06.156Z,16.44
2018-09-19T05:20:13.388Z,16.42
2018-09-19T05:21:21.239Z,16.38
2018-09-19T05:22:29.965Z,16.51
2018-09-19T05:23:37.190Z,16.63
2018-09-19T05:24:44.545Z,16.59
2018-09-19T05:25:50.833Z,16.54
2018-09-19T05:26:57.683Z,16.69
2018-09-19T05:28:04.097Z,16.90
2018-09-19T05:29:21.557Z,16.94
2018-09-19T05:30:29.712Z,16.88
2018-09-19T05:31:37.109Z,16.79
2018-09-19T05:32:43.585Z,16.75
2018-09-19T05:33:50.813Z,16.68
2018-09-19T05:34:57.122Z,16.56
2018-09-19T05:36:03.412Z,16.60
2018-09-19T05:37:09.664Z,16.72
2018-09-19T05:38:16.095Z,16.90
2018-09-19T05:39:23.605Z,16.94
2018-09-19T05:40:30.377Z,16.97
2018-09-19T05:41:37.149Z,16.86
2018-09-19T05:42:48.625Z,16.88
2018-09-19T05:43:54.959Z,16.94
2018-09-19T05:45:01.099Z,16.89
2018-09-19T05:46:07.478Z,16.80
2018-09-19T05:47:13.785Z,16.77
2018-09-19T05:48:20.139Z,16.87
2018-09-19T05:49:26.433Z,16.98
2018-09-19T05:50:34.290Z,16.84
2018-09-19T05:51:40.688Z,16.70
2018-09-19T05:52:46.983Z,16.69
2018-09-19T05:53:53.314Z,16.71
2018-09-19T05:54:59.627Z,16.79
2018-09-19T05:56:06.029Z,16.81
2018-09-19T05:57:12.462Z,16.94
2018-09-19T05:58:18.909Z,17.18
2018-09-19T05:59:25.312Z,17.19
2018-09-19T06:00:31.646Z,17.19
2018-09-19T06:01:37.994Z,17.15
2018-09-19T06:02:45.292Z,17.11
2018-09-19T06:03:51.686Z,17.38
2018-09-19T06:04:58.141Z,17.47
2018-09-19T06:06:04.726Z,17.38
2018-09-19T06:07:11.115Z,17.24
2018-09-19T06:08:17.466Z,17.11
2018-09-19T06:09:23.797Z,17.09
2018-09-19T06:10:31.046Z,17.03
2018-09-19T06:11:37.788Z,17.00
2018-09-19T06:12:44.213Z,16.97
2018-09-19T06:13:50.047Z,17.03
2018-09-19T06:14:56.370Z,17.10
2018-09-19T06:16:02.757Z,17.12
2018-09-19T06:17:09.119Z,17.08
2018-09-19T06:18:15.536Z,17.08
2018-09-19T06:19:21.854Z,17.02
2018-09-19T06:20:28.151Z,17.07
2018-09-19T06:21:34.591Z,17.12
2018-09-19T06:22:40.879Z,17.14
2018-09-19T06:23:47.289Z,17.06
2018-09-19T06:24:53.701Z,16.96
2018-09-19T06:25:59.981Z,16.93
2018-09-19T06:27:06.493Z,16.91
2018-09-19T06:28:12.792Z,16.86
2018-09-19T06:29:19.191Z,16.87
2018-09-19T06:30:25.606Z,17.02
2018-09-19T06:31:32.031Z,17.15
2018-09-19T06:32:38.351Z,17.15
2018-09-19T06:33:44.700Z,17.23
2018-09-19T06:34:51.208Z,17.25
2018-09-19T06:35:57.587Z,17.24
2018-09-19T06:37:04.023Z,17.28
2018-09-19T06:38:10.460Z,17.18
2018-09-19T06:39:16.758Z,17.11
2018-09-19T06:40:23.140Z,17.15
2018-09-19T06:41:29.710Z,17.35
2018-09-19T06:42:37.218Z,17.57
2018-09-19T06:43:43.586Z,17.63
2018-09-19T06:44:49.896Z,17.63
2018-09-19T06:45:56.183Z,17.69
2018-09-19T06:47:02.608Z,17.61
2018-09-19T06:48:09.119Z,17.45
2018-09-19T06:49:15.411Z,17.29
2018-09-19T06:50:22.203Z,17.28
2018-09-19T06:51:28.827Z,17.27
2018-09-19T06:52:35.295Z,17.38
2018-09-19T06:53:41.814Z,17.53
2018-09-19T06:54:48.207Z,17.70
2018-09-19T06:55:54.557Z,17.93
2018-09-19T06:57:00.965Z,18.12
2018-09-19T06:58:07.527Z,18.34
2018-09-19T06:59:13.940Z,18.50
2018-09-19T07:00:20.306Z,18.67
2018-09-19T07:01:26.486Z,18.61
2018-09-19T07:02:32.838Z,18.74
2018-09-19T07:03:40.296Z,18.91
2018-09-19T07:04:47.504Z,19.08
2018-09-19T07:05:54.607Z,19.20
2018-09-19T07:07:01.832Z,19.24
2018-09-19T07:08:08.348Z,19.33
2018-09-19T07:09:15.135Z,19.36
2018-09-19T07:10:21.527Z,19.29
2018-09-19T07:11:28.073Z,19.48
2018-09-19T07:12:34.445Z,19.72
2018-09-19T07:13:40.865Z,19.70
2018-09-19T07:14:47.191Z,19.77
2018-09-19T07:15:53.561Z,19.83
2018-09-19T07:16:59.941Z,19.92
2018-09-19T07:18:06.308Z,19.93
2018-09-19T07:19:12.623Z,19.98
2018-09-19T07:20:18.982Z,20.17
2018-09-19T07:21:25.410Z,20.30
2018-09-19T07:22:31.809Z,20.26
2018-09-19T07:23:38.289Z,20.28
2018-09-19T07:24:44.782Z,20.30
2018-09-19T07:25:50.955Z,20.49
2018-09-19T07:26:57.992Z,20.48
2018-09-19T07:28:04.340Z,20.64
2018-09-19T07:29:10.807Z,20.53
2018-09-19T07:30:17.252Z,20.60
2018-09-19T07:31:23.576Z,20.57
2018-09-19T07:32:30.079Z,20.72
2018-09-19T07:33:36.541Z,20.89
2018-09-19T07:34:42.986Z,21.02
2018-09-19T07:35:49.349Z,21.04
2018-09-19T07:36:55.692Z,21.10
2018-09-19T07:38:02.109Z,21.16
2018-09-19T07:39:08.439Z,21.19
2018-09-19T07:40:16.768Z,21.13
2018-09-19T07:41:23.407Z,21.33
2018-09-19T07:42:29.778Z,21.37
2018-09-19T07:43:36.172Z,21.39
2018-09-19T07:44:42.519Z,21.47
2018-09-19T07:45:48.875Z,21.35
2018-09-19T07:46:56.159Z,21.35
2018-09-19T07:48:02.498Z,21.39
2018-09-19T07:49:08.884Z,21.49
2018-09-19T07:50:15.212Z,21.48
2018-09-19T07:51:21.563Z,21.51
2018-09-19T07:52:27.991Z,21.79
2018-09-19T07:53:34.444Z,21.74
2018-09-19T07:54:40.852Z,21.69
2018-09-19T07:55:47.444Z,21.79
2018-09-19T07:56:54.137Z,21.78
2018-09-19T07:58:00.672Z,21.85
2018-09-19T07:59:06.989Z,21.80
2018-09-19T08:00:13.346Z,21.83
2018-09-19T08:01:19.811Z,21.90
2018-09-19T08:02:26.397Z,21.92
2018-09-19T08:03:32.731Z,21.95
2018-09-19T08:04:39.126Z,22.09
2018-09-19T08:05:45.132Z,22.17
2018-09-19T08:06:51.531Z,22.14
2018-09-19T08:07:57.887Z,22.29
2018-09-19T08:09:03.672Z,22.28
2018-09-19T08:10:10.268Z,22.24
2018-09-19T08:11:16.598Z,22.25
2018-09-19T08:12:22.950Z,22.40
2018-09-19T08:13:29.283Z,22.37
2018-09-19T08:14:35.742Z,22.34
2018-09-19T08:15:42.061Z,22.43
2018-09-19T08:16:48.373Z,22.51
2018-09-19T08:17:54.916Z,22.54
2018-09-19T08:19:01.897Z,22.52
2018-09-19T08:20:08.332Z,22.55
2018-09-19T08:21:14.678Z,22.68
2018-09-19T08:22:21.088Z,22.72
2018-09-19T08:23:27.653Z,22.78
2018-09-19T08:24:34.035Z,22.75
2018-09-19T08:25:40.399Z,22.87
2018-09-19T08:26:46.788Z,22.83
2018-09-19T08:27:53.171Z,22.79
2018-09-19T08:28:59.552Z,22.80
2018-09-19T08:30:05.552Z,22.87
2018-09-19T08:31:11.988Z,22.90
2018-09-19T08:32:18.386Z,22.95
2018-09-19T08:33:24.803Z,22.98
2018-09-19T08:34:31.212Z,23.02
2018-09-19T08:35:37.359Z,23.02
2018-09-19T08:36:43.673Z,23.20
2018-09-19T08:37:50.107Z,23.26
2018-09-19T08:38:56.494Z,23.41
2018-09-19T08:40:02.872Z,23.51
2018-09-19T08:41:09.222Z,23.42
2018-09-19T08:42:15.575Z,23.53
2018-09-19T08:43:21.928Z,23.75
2018-09-19T08:44:28.341Z,23.94
2018-09-19T08:45:34.651Z,24.01
2018-09-19T08:46:41.413Z,23.95
2018-09-19T08:47:47.803Z,23.98
2018-09-19T08:48:54.185Z,24.00
2018-09-19T08:50:00.489Z,23.87
2018-09-19T08:51:07.095Z,23.82
2018-09-19T08:52:13.423Z,23.80
2018-09-19T08:53:19.819Z,24.02
2018-09-19T08:54:26.176Z,24.12
2018-09-19T08:55:31.960Z,23.91
2018-09-19T08:56:38.220Z,23.88
2018-09-19T08:57:44.462Z,24.05
2018-09-19T08:58:50.746Z,24.14
2018-09-19T08:59:56.994Z,24.07
2018-09-19T09:01:03.219Z,24.21
2018-09-19T09:02:09.229Z,24.24
2018-09-19T09:03:15.495Z,24.14
2018-09-19T09:04:21.444Z,24.10
2018-09-19T09:05:27.843Z,24.16
2018-09-19T09:06:34.193Z,24.16
2018-09-19T09:07:40.450Z,24.15
2018-09-19T09:08:46.735Z,24.38
2018-09-19T09:09:53.006Z,24.42
2018-09-19T09:10:59.251Z,24.31
2018-09-19T09:12:05.510Z,24.31
2018-09-19T09:13:11.921Z,24.42
2018-09-19T09:14:18.200Z,24.47
2018-09-19T09:15:24.433Z,24.50
2018-09-19T09:16:30.669Z,24.50
2018-09-19T09:17:36.933Z,24.61
2018-09-19T09:18:43.221Z,24.75
2018-09-19T09:19:49.492Z,24.73
2018-09-19T09:20:55.682Z,24.60
2018-09-19T09:22:01.924Z,24.64
2018-09-19T09:23:08.157Z,24.86
2018-09-19T09:24:14.423Z,25.06
2018-09-19T09:25:20.659Z,25.04
2018-09-19T09:26:26.905Z,25.14
2018-09-19T09:27:33.217Z,25.07
2018-09-19T09:28:39.495Z,25.12
2018-09-19T09:29:45.755Z,25.10
2018-09-19T09:30:52.027Z,25.06
2018-09-19T09:31:58.334Z,24.97
2018-09-19T09:33:04.557Z,24.92
2018-09-19T09:34:10.855Z,25.09
2018-09-19T09:35:17.337Z,25.08
2018-09-19T09:36:23.603Z,25.16
2018-09-19T09:37:29.833Z,25.24
2018-09-19T09:38:35.782Z,25.38
2018-09-19T09:39:42.066Z,25.39
2018-09-19T09:40:48.315Z,25.33
2018-09-19T09:41:54.581Z,25.48
2018-09-19T09:43:00.825Z,25.51
2018-09-19T09:44:07.112Z,25.43
2018-09-19T09:45:12.993Z,25.29
2018-09-19T09:46:19.262Z,25.37
2018-09-19T09:47:25.572Z,25.45
2018-09-19T09:48:31.822Z,25.46
2018-09-19T09:49:38.093Z,25.44
2018-09-19T09:50:44.056Z,25.52
2018-09-19T09:51:50.304Z,25.77
2018-09-19T09:52:56.537Z,25.78
2018-09-19T09:54:02.774Z,25.62
2018-09-19T09:55:09.035Z,25.51
2018-09-19T09:56:15.490Z,25.55
2018-09-19T09:57:21.473Z,25.56
2018-09-19T09:58:27.700Z,25.49
2018-09-19T09:59:33.954Z,25.54
2018-09-19T10:00:39.880Z,25.59
2018-09-19T10:01:46.134Z,25.53
2018-09-19T10:02:52.436Z,25.22
2018-09-19T10:03:58.712Z,25.19
2018-09-19T10:05:04.964Z,25.43
2018-09-19T10:06:11.232Z,25.57
2018-09-19T10:07:17.481Z,25.65
2018-09-19T10:08:23.724Z,25.88
2018-09-19T10:09:29.991Z,25.91
2018-09-19T10:10:36.265Z,26.08
2018-09-19T10:11:42.230Z,26.26
2018-09-19T10:12:48.182Z,26.19
2018-09-19T10:13:54.476Z,26.06
2018-09-19T10:15:00.709Z,25.93
2018-09-19T10:16:06.650Z,26.05
2018-09-19T10:17:12.912Z,26.15
2018-09-19T10:18:18.870Z,26.18
2018-09-19T10:19:24.971Z,26.32
2018-09-19T10:20:31.245Z,26.36
2018-09-19T10:21:37.183Z,26.38
2018-09-19T10:22:43.151Z,26.45
2018-09-19T10:23:49.152Z,26.65
2018-09-19T10:24:55.149Z,26.63
2018-09-19T10:26:01.397Z,26.78
2018-09-19T10:27:06.993Z,26.61
2018-09-19T10:28:12.961Z,26.72
2018-09-19T10:29:19.244Z,26.73
2018-09-19T10:30:24.833Z,26.46
2018-09-19T10:31:31.101Z,26.56
2018-09-19T10:32:37.099Z,26.70
2018-09-19T10:33:43.041Z,26.73
2018-09-19T10:34:49.040Z,26.78
2018-09-19T10:35:55.013Z,26.93
2018-09-19T10:37:00.958Z,26.92
2018-09-19T10:38:06.920Z,26.95
2018-09-19T10:39:12.840Z,27.13
2018-09-19T10:40:18.802Z,27.09
2018-09-19T10:41:24.792Z,27.10
2018-09-19T10:42:30.740Z,27.07
2018-09-19T10:43:36.976Z,27.23
2018-09-19T10:44:42.968Z,27.31
2018-09-19T10:45:48.924Z,27.35
2018-09-19T10:46:54.839Z,27.21
2018-09-19T10:48:00.794Z,27.25
2018-09-19T10:49:06.759Z,27.15
2018-09-19T10:50:12.737Z,27.20
2018-09-19T10:51:18.679Z,27.42
2018-09-19T10:52:24.637Z,27.21
2018-09-19T10:53:30.619Z,27.41
2018-09-19T10:54:36.790Z,27.06
2018-09-19T10:55:42.729Z,27.12
2018-09-19T10:56:48.693Z,27.09
2018-09-19T10:57:54.907Z,27.14
2018-09-19T10:59:00.983Z,27.48
2018-09-19T11:00:06.905Z,27.37
2018-09-19T11:01:13.608Z,27.42
2018-09-19T11:02:19.566Z,27.73
2018-09-19T11:03:25.559Z,27.83
2018-09-19T11:04:31.567Z,27.94
2018-09-19T11:05:37.574Z,27.98
2018-09-19T11:06:43.519Z,28.07
2018-09-19T11:07:49.461Z,27.96
2018-09-19T11:08:55.449Z,27.87
2018-09-19T11:10:01.417Z,28.09
2018-09-19T11:11:07.364Z,27.88
2018-09-19T11:12:13.299Z,27.97
2018-09-19T11:13:19.225Z,28.18
2018-09-19T11:14:25.160Z,28.35
2018-09-19T11:15:31.316Z,28.55
2018-09-19T11:16:37.298Z,28.48
2018-09-19T11:17:43.389Z,28.32
2018-09-19T11:18:49.333Z,28.38
2018-09-19T11:19:56.239Z,28.52
2018-09-19T11:21:02.165Z,28.68
2018-09-19T11:22:08.076Z,28.75
2018-09-19T11:23:14.093Z,28.85
2018-09-19T11:24:20.060Z,28.75
2018-09-19T11:25:26.047Z,28.72
2018-09-19T11:26:32.014Z,28.63
2018-09-19T11:27:37.964Z,28.69
2018-09-19T11:28:43.912Z,28.44
2018-09-19T11:29:49.875Z,28.35
2018-09-19T11:30:55.471Z,28.45
2018-09-19T11:32:01.409Z,28.54
2018-09-19T11:33:07.413Z,28.76
2018-09-19T11:34:13.380Z,28.61
2018-09-19T11:35:19.361Z,28.80
2018-09-19T11:36:25.369Z,28.89
2018-09-19T11:37:31.333Z,28.95
2018-09-19T11:38:37.282Z,29.01
2018-09-19T11:39:43.213Z,29.12
2018-09-19T11:40:48.837Z,29.03
2018-09-19T11:41:54.785Z,28.87
2018-09-19T11:43:00.730Z,29.13
2018-09-19T11:44:06.448Z,29.20
2018-09-19T11:45:12.444Z,29.18
2018-09-19T11:46:18.435Z,29.50
2018-09-19T11:47:24.631Z,29.50
2018-09-19T11:48:30.602Z,29.47
2018-09-19T11:49:36.602Z,29.38
2018-09-19T11:50:42.593Z,29.40
2018-09-19T11:51:48.530Z,29.51
2018-09-19T11:52:54.513Z,29.70
2018-09-19T11:54:00.462Z,29.75
2018-09-19T11:55:06.070Z,29.94
2018-09-19T11:56:12.045Z,29.77
2018-09-19T11:57:18.013Z,29.83
2018-09-19T11:58:23.948Z,29.88
2018-09-19T11:59:29.669Z,30.00
2018-09-19T12:00:35.640Z,29.87
2018-09-19T12:01:41.571Z,29.61
2018-09-19T12:02:47.516Z,29.61
2018-09-19T12:03:53.173Z,29.51
2018-09-19T12:04:59.147Z,29.65
2018-09-19T12:06:05.168Z,29.94
2018-09-19T12:07:10.876Z,30.26
2018-09-19T12:08:16.811Z,30.36
2018-09-19T12:09:22.781Z,30.38
2018-09-19T12:10:30.526Z,30.54
2018-09-19T12:11:37.685Z,30.35
2018-09-19T12:12:44.436Z,30.40
2018-09-19T12:13:50.405Z,30.45
2018-09-19T12:14:56.367Z,30.47
2018-09-19T12:16:02.782Z,30.37
2018-09-19T12:17:08.729Z,30.22
2018-09-19T12:18:14.688Z,30.27
2018-09-19T12:19:20.640Z,30.38
2018-09-19T12:20:26.294Z,30.38
2018-09-19T12:21:32.233Z,30.03
2018-09-19T12:22:38.212Z,30.16
2018-09-19T12:23:44.241Z,30.36
2018-09-19T12:24:50.187Z,30.52
2018-09-19T12:25:56.185Z,30.57
2018-09-19T12:27:02.108Z,30.35
2018-09-19T12:28:08.063Z,30.32
2018-09-19T12:29:14.018Z,30.62
2018-09-19T12:30:20.046Z,30.46
2018-09-19T12:31:26.216Z,30.57
2018-09-19T12:32:32.168Z,30.58
2018-09-19T12:33:38.115Z,30.79
2018-09-19T12:34:44.074Z,30.78
2018-09-19T12:35:50.047Z,30.97
2018-09-19T12:36:56.060Z,30.84
2018-09-19T12:38:02.000Z,31.06
2018-09-19T12:39:07.943Z,31.24
2018-09-19T12:40:13.874Z,31.43
2018-09-19T12:41:19.878Z,31.40
2018-09-19T12:42:25.832Z,31.41
2018-09-19T12:43:32.706Z,31.23
2018-09-19T12:44:38.650Z,31.21
2018-09-19T12:45:44.620Z,31.16
2018-09-19T12:46:50.347Z,30.95
2018-09-19T12:47:56.286Z,30.79
2018-09-19T12:49:02.269Z,31.12
2018-09-19T12:50:07.810Z,31.34
2018-09-19T12:51:13.784Z,31.43
2018-09-19T12:52:19.730Z,31.29
2018-09-19T12:53:25.726Z,31.33
2018-09-19T12:54:31.884Z,31.13
2018-09-19T12:55:37.493Z,31.12
2018-09-19T12:56:44.362Z,31.23
2018-09-19T12:57:50.308Z,31.29
2018-09-19T12:58:56.032Z,31.20
2018-09-19T13:00:02.198Z,31.14
2018-09-19T13:01:08.005Z,31.25
2018-09-19T13:02:14.004Z,31.25
2018-09-19T13:03:19.951Z,31.20
2018-09-19T13:04:25.892Z,31.18
2018-09-19T13:05:31.849Z,31.36
2018-09-19T13:06:37.831Z,31.55
2018-09-19T13:07:43.790Z,31.37
2018-09-19T13:08:49.739Z,31.22
2018-09-19T13:09:55.681Z,31.36
2018-09-19T13:11:01.654Z,31.31
2018-09-19T13:12:07.601Z,31.32
2018-09-19T13:13:13.531Z,31.36
2018-09-19T13:14:19.458Z,31.51
2018-09-19T13:15:25.411Z,31.53
2018-09-19T13:16:31.373Z,31.30
2018-09-19T13:17:37.308Z,31.50
2018-09-19T13:18:43.248Z,31.85
2018-09-19T13:19:48.919Z,31.83
2018-09-19T13:20:54.901Z,31.38
2018-09-19T13:22:00.893Z,31.62
2018-09-19T13:23:06.873Z,31.81
2018-09-19T13:24:12.614Z,31.81
2018-09-19T13:25:18.542Z,31.62
2018-09-19T13:26:24.224Z,31.47
2018-09-19T13:27:30.194Z,31.64
2018-09-19T13:28:36.373Z,31.48
2018-09-19T13:29:42.317Z,31.51
2018-09-19T13:30:48.306Z,31.33
2018-09-19T13:31:54.283Z,31.64
2018-09-19T13:33:00.241Z,31.88
2018-09-19T13:34:06.200Z,31.85
2018-09-19T13:35:12.153Z,31.73
2018-09-19T13:36:18.153Z,31.59
2018-09-19T13:37:24.112Z,31.72
2018-09-19T13:38:30.056Z,31.61
2018-09-19T13:39:35.998Z,31.92
2018-09-19T13:40:41.919Z,32.17
2018-09-19T13:41:47.914Z,32.31
2018-09-19T13:42:53.652Z,32.26
2018-09-19T13:43:59.616Z,32.26
2018-09-19T13:45:04.866Z,32.33
2018-09-19T13:46:10.577Z,32.27
2018-09-19T13:47:16.209Z,32.33
2018-09-19T13:48:22.162Z,32.44
2018-09-19T13:49:28.133Z,32.43
2018-09-19T13:50:33.736Z,32.49
2018-09-19T13:51:39.711Z,32.64
2018-09-19T13:52:45.682Z,32.51
2018-09-19T13:53:51.652Z,32.43
2018-09-19T13:54:57.590Z,32.54
2018-09-19T13:56:03.578Z,32.29
2018-09-19T13:57:09.549Z,32.10
2018-09-19T13:58:15.470Z,32.07
2018-09-19T13:59:21.426Z,32.05
2018-09-19T14:00:27.394Z,31.97
2018-09-19T14:01:33.378Z,32.06
2018-09-19T14:02:39.347Z,32.12
2018-09-19T14:03:44.964Z,32.24
2018-09-19T14:04:50.944Z,32.17
2018-09-19T14:05:56.931Z,32.24
2018-09-19T14:07:02.976Z,32.10
2018-09-19T14:08:08.680Z,32.23
2018-09-19T14:09:14.645Z,32.11
2018-09-19T14:10:20.618Z,32.15
2018-09-19T14:11:26.611Z,32.15
2018-09-19T14:12:32.629Z,32.33
2018-09-19T14:13:38.572Z,32.46
2018-09-19T14:14:44.575Z,32.59
2018-09-19T14:15:50.173Z,32.64
2018-09-19T14:16:56.140Z,32.81
2018-09-19T14:18:02.120Z,32.53
2018-09-19T14:19:08.068Z,32.67
2018-09-19T14:20:14.074Z,32.70
2018-09-19T14:21:20.090Z,32.72
2018-09-19T14:22:26.110Z,32.37
2018-09-19T14:23:32.117Z,32.47
2018-09-19T14:24:38.093Z,32.46
2018-09-19T14:25:44.056Z,32.55
2018-09-19T14:26:49.695Z,32.38
2018-09-19T14:27:55.690Z,32.48
2018-09-19T14:29:01.688Z,32.40
2018-09-19T14:30:07.659Z,32.44
2018-09-19T14:31:13.629Z,32.64
2018-09-19T14:32:19.641Z,32.65
2018-09-19T14:33:25.369Z,32.12
2018-09-19T14:34:38.248Z,32.27
2018-09-19T14:35:44.351Z,32.46
2018-09-19T14:36:50.476Z,32.37
2018-09-19T14:37:56.471Z,32.41
2018-09-19T14:39:02.500Z,32.30
2018-09-19T14:40:08.863Z,32.30
2018-09-19T14:41:15.306Z,32.39
2018-09-19T14:42:21.437Z,32.29
2018-09-19T14:43:27.437Z,32.28
2018-09-19T14:44:33.422Z,32.28
2018-09-19T14:45:39.408Z,32.35
2018-09-19T14:46:45.542Z,32.36
2018-09-19T14:47:51.721Z,32.52
2018-09-19T14:48:57.907Z,32.46
2018-09-19T14:50:04.209Z,32.05
2018-09-19T14:51:10.563Z,32.17
2018-09-19T14:52:16.815Z,32.09
2018-09-19T14:53:23.007Z,31.95
2018-09-19T14:54:29.451Z,32.08
2018-09-19T14:55:36.006Z,32.03